sensor_id;sensor_type;location;lat;lon;timestamp;P1;durP1;ratioP1;P2;durP2;ratioP2
31692;SDS011;37436;53.230;6.614;2023-07-13T00:00:36;8.52;;;3.10;;
31692;SDS011;37436;53.230;6.614;2023-07-13T00:03:04;18.38;;;2.72;;
31692;SDS011;37436;53.230;6.614;2023-07-13T00:05:35;12.88;;;3.22;;
31692;SDS011;37436;53.230;6.614;2023-07-13T00:08:03;11.60;;;3.22;;
31692;SDS011;37436;53.230;6.614;2023-07-13T00:10:29;9.05;;;2.75;;
31692;SDS011;37436;53.230;6.614;2023-07-13T00:12:59;10.23;;;2.80;;
31692;SDS011;37436;53.230;6.614;2023-07-13T00:15:27;12.20;;;2.60;;
31692;SDS011;37436;53.230;6.614;2023-07-13T00:17:55;14.30;;;2.60;;
31692;SDS011;37436;53.230;6.614;2023-07-13T00:20:31;8.85;;;2.70;;
31692;SDS011;37436;53.230;6.614;2023-07-13T00:22:58;5.97;;;2.20;;
31692;SDS011;37436;53.230;6.614;2023-07-13T00:25:39;13.70;;;2.97;;
31692;SDS011;37436;53.230;6.614;2023-07-13T00:28:07;13.35;;;2.55;;
31692;SDS011;37436;53.230;6.614;2023-07-13T00:30:34;17.88;;;3.55;;
31692;SDS011;37436;53.230;6.614;2023-07-13T00:33:00;11.75;;;2.22;;
31692;SDS011;37436;53.230;6.614;2023-07-13T00:35:51;10.40;;;2.13;;
31692;SDS011;37436;53.230;6.614;2023-07-13T00:38:18;16.48;;;3.05;;
31692;SDS011;37436;53.230;6.614;2023-07-13T00:40:56;13.40;;;2.80;;
31692;SDS011;37436;53.230;6.614;2023-07-13T00:43:28;19.67;;;3.60;;
31692;SDS011;37436;53.230;6.614;2023-07-13T00:48:29;18.65;;;3.05;;
31692;SDS011;37436;53.230;6.614;2023-07-13T00:50:56;14.80;;;2.53;;
31692;SDS011;37436;53.230;6.614;2023-07-13T00:53:24;10.05;;;2.60;;
31692;SDS011;37436;53.230;6.614;2023-07-13T00:55:52;12.63;;;2.80;;
31692;SDS011;37436;53.230;6.614;2023-07-13T00:58:24;7.85;;;2.33;;
31692;SDS011;37436;53.230;6.614;2023-07-13T01:00:54;17.75;;;3.15;;
31692;SDS011;37436;53.230;6.614;2023-07-13T01:03:21;15.40;;;3.47;;
31692;SDS011;37436;53.230;6.614;2023-07-13T01:05:52;12.38;;;3.20;;
31692;SDS011;37436;53.230;6.614;2023-07-13T01:08:22;10.35;;;3.00;;
31692;SDS011;37436;53.230;6.614;2023-07-13T01:10:56;12.70;;;2.80;;
31692;SDS011;37436;53.230;6.614;2023-07-13T01:16:12;17.10;;;4.10;;
31692;SDS011;37436;53.230;6.614;2023-07-13T01:18:41;10.57;;;2.90;;
31692;SDS011;37436;53.230;6.614;2023-07-13T01:21:11;16.15;;;3.13;;
31692;SDS011;37436;53.230;6.614;2023-07-13T01:23:44;12.50;;;4.05;;
31692;SDS011;37436;53.230;6.614;2023-07-13T01:26:10;16.95;;;3.35;;
31692;SDS011;37436;53.230;6.614;2023-07-13T01:28:43;19.98;;;3.40;;
31692;SDS011;37436;53.230;6.614;2023-07-13T01:31:12;11.05;;;2.90;;
31692;SDS011;37436;53.230;6.614;2023-07-13T01:33:39;23.45;;;3.80;;
31692;SDS011;37436;53.230;6.614;2023-07-13T01:36:07;14.70;;;3.10;;
31692;SDS011;37436;53.230;6.614;2023-07-13T01:38:34;13.70;;;3.15;;
31692;SDS011;37436;53.230;6.614;2023-07-13T01:41:22;15.65;;;3.58;;
31692;SDS011;37436;53.230;6.614;2023-07-13T01:43:50;14.57;;;2.67;;
31692;SDS011;37436;53.230;6.614;2023-07-13T01:46:16;14.98;;;2.90;;
31692;SDS011;37436;53.230;6.614;2023-07-13T01:48:49;8.38;;;2.40;;
31692;SDS011;37436;53.230;6.614;2023-07-13T01:51:15;8.98;;;2.70;;
31692;SDS011;37436;53.230;6.614;2023-07-13T01:53:45;14.68;;;2.78;;
31692;SDS011;37436;53.230;6.614;2023-07-13T01:56:24;14.10;;;2.80;;
31692;SDS011;37436;53.230;6.614;2023-07-13T01:58:51;13.55;;;2.72;;
31692;SDS011;37436;53.230;6.614;2023-07-13T02:01:18;13.38;;;2.80;;
31692;SDS011;37436;53.230;6.614;2023-07-13T02:03:45;13.45;;;3.00;;
31692;SDS011;37436;53.230;6.614;2023-07-13T02:06:19;9.65;;;2.40;;
31692;SDS011;37436;53.230;6.614;2023-07-13T02:08:46;12.93;;;2.30;;
31692;SDS011;37436;53.230;6.614;2023-07-13T02:11:19;15.82;;;3.25;;
31692;SDS011;37436;53.230;6.614;2023-07-13T02:13:47;15.60;;;2.80;;
31692;SDS011;37436;53.230;6.614;2023-07-13T02:16:17;21.63;;;3.20;;
31692;SDS011;37436;53.230;6.614;2023-07-13T02:18:50;12.23;;;2.88;;
31692;SDS011;37436;53.230;6.614;2023-07-13T02:21:18;8.35;;;2.80;;
31692;SDS011;37436;53.230;6.614;2023-07-13T02:23:52;10.07;;;2.70;;
31692;SDS011;37436;53.230;6.614;2023-07-13T02:27:02;9.80;;;3.30;;
31692;SDS011;37436;53.230;6.614;2023-07-13T02:29:11;6.43;;;2.97;;
31692;SDS011;37436;53.230;6.614;2023-07-13T02:31:38;10.98;;;2.70;;
31692;SDS011;37436;53.230;6.614;2023-07-13T02:34:04;11.27;;;2.60;;
31692;SDS011;37436;53.230;6.614;2023-07-13T02:36:34;13.05;;;2.65;;
31692;SDS011;37436;53.230;6.614;2023-07-13T02:39:00;12.90;;;2.88;;
31692;SDS011;37436;53.230;6.614;2023-07-13T02:41:30;10.30;;;3.35;;
31692;SDS011;37436;53.230;6.614;2023-07-13T02:43:58;8.30;;;2.60;;
31692;SDS011;37436;53.230;6.614;2023-07-13T02:46:40;13.50;;;3.17;;
31692;SDS011;37436;53.230;6.614;2023-07-13T02:49:07;14.38;;;2.97;;
31692;SDS011;37436;53.230;6.614;2023-07-13T02:51:34;11.20;;;3.75;;
31692;SDS011;37436;53.230;6.614;2023-07-13T02:54:04;16.40;;;3.80;;
31692;SDS011;37436;53.230;6.614;2023-07-13T02:56:33;33.05;;;5.38;;
31692;SDS011;37436;53.230;6.614;2023-07-13T02:59:15;9.65;;;2.92;;
31692;SDS011;37436;53.230;6.614;2023-07-13T03:01:42;10.30;;;3.63;;
31692;SDS011;37436;53.230;6.614;2023-07-13T03:04:30;17.67;;;3.53;;
31692;SDS011;37436;53.230;6.614;2023-07-13T03:06:56;18.05;;;4.03;;
31692;SDS011;37436;53.230;6.614;2023-07-13T03:09:26;17.95;;;3.70;;
31692;SDS011;37436;53.230;6.614;2023-07-13T03:11:53;12.15;;;3.80;;
31692;SDS011;37436;53.230;6.614;2023-07-13T03:14:24;12.10;;;3.47;;
31692;SDS011;37436;53.230;6.614;2023-07-13T03:16:52;10.05;;;3.63;;
31692;SDS011;37436;53.230;6.614;2023-07-13T03:19:23;24.60;;;3.72;;
31692;SDS011;37436;53.230;6.614;2023-07-13T03:22:11;11.52;;;3.75;;
31692;SDS011;37436;53.230;6.614;2023-07-13T03:24:38;12.25;;;3.72;;
31692;SDS011;37436;53.230;6.614;2023-07-13T03:27:06;29.30;;;5.43;;
31692;SDS011;37436;53.230;6.614;2023-07-13T03:29:32;17.35;;;4.25;;
31692;SDS011;37436;53.230;6.614;2023-07-13T03:31:59;14.43;;;3.42;;
31692;SDS011;37436;53.230;6.614;2023-07-13T03:34:28;15.07;;;4.35;;
31692;SDS011;37436;53.230;6.614;2023-07-13T03:36:56;15.80;;;3.97;;
31692;SDS011;37436;53.230;6.614;2023-07-13T03:39:22;9.98;;;3.38;;
31692;SDS011;37436;53.230;6.614;2023-07-13T03:41:56;18.13;;;3.53;;
31692;SDS011;37436;53.230;6.614;2023-07-13T03:44:25;16.40;;;3.58;;
31692;SDS011;37436;53.230;6.614;2023-07-13T03:46:52;5.20;;;1.90;;
31692;SDS011;37436;53.230;6.614;2023-07-13T03:49:28;17.73;;;3.95;;
31692;SDS011;37436;53.230;6.614;2023-07-13T03:51:55;17.13;;;4.10;;
31692;SDS011;37436;53.230;6.614;2023-07-13T03:54:22;20.52;;;4.05;;
31692;SDS011;37436;53.230;6.614;2023-07-13T03:56:48;9.95;;;3.25;;
31692;SDS011;37436;53.230;6.614;2023-07-13T03:59:30;13.27;;;3.90;;
31692;SDS011;37436;53.230;6.614;2023-07-13T04:01:56;13.52;;;3.17;;
31692;SDS011;37436;53.230;6.614;2023-07-13T04:04:23;11.45;;;3.78;;
31692;SDS011;37436;53.230;6.614;2023-07-13T04:06:49;13.65;;;3.63;;
31692;SDS011;37436;53.230;6.614;2023-07-13T04:09:48;18.10;;;4.03;;
31692;SDS011;37436;53.230;6.614;2023-07-13T04:12:17;12.85;;;3.67;;
31692;SDS011;37436;53.230;6.614;2023-07-13T04:14:48;16.17;;;2.92;;
31692;SDS011;37436;53.230;6.614;2023-07-13T04:17:14;19.27;;;4.30;;
31692;SDS011;37436;53.230;6.614;2023-07-13T04:19:41;11.60;;;3.03;;
31692;SDS011;37436;53.230;6.614;2023-07-13T04:22:15;12.93;;;3.92;;
31692;SDS011;37436;53.230;6.614;2023-07-13T04:24:44;15.55;;;3.00;;
31692;SDS011;37436;53.230;6.614;2023-07-13T04:27:12;15.45;;;3.40;;
31692;SDS011;37436;53.230;6.614;2023-07-13T04:29:40;15.05;;;3.20;;
31692;SDS011;37436;53.230;6.614;2023-07-13T04:32:09;13.30;;;3.85;;
31692;SDS011;37436;53.230;6.614;2023-07-13T04:34:37;19.35;;;3.70;;
31692;SDS011;37436;53.230;6.614;2023-07-13T04:37:04;12.98;;;3.67;;
31692;SDS011;37436;53.230;6.614;2023-07-13T04:39:31;12.68;;;3.47;;
31692;SDS011;37436;53.230;6.614;2023-07-13T04:41:57;11.90;;;3.47;;
31692;SDS011;37436;53.230;6.614;2023-07-13T04:44:24;20.55;;;3.55;;
31692;SDS011;37436;53.230;6.614;2023-07-13T04:46:51;12.75;;;5.18;;
31692;SDS011;37436;53.230;6.614;2023-07-13T04:49:19;20.23;;;4.43;;
31692;SDS011;37436;53.230;6.614;2023-07-13T04:51:49;13.70;;;3.58;;
31692;SDS011;37436;53.230;6.614;2023-07-13T04:54:19;16.17;;;2.70;;
31692;SDS011;37436;53.230;6.614;2023-07-13T04:57:10;14.63;;;3.90;;
31692;SDS011;37436;53.230;6.614;2023-07-13T04:59:44;10.00;;;3.20;;
31692;SDS011;37436;53.230;6.614;2023-07-13T05:02:22;14.18;;;3.25;;
31692;SDS011;37436;53.230;6.614;2023-07-13T05:04:51;12.50;;;3.95;;
31692;SDS011;37436;53.230;6.614;2023-07-13T05:07:30;6.78;;;3.10;;
31692;SDS011;37436;53.230;6.614;2023-07-13T05:10:02;10.18;;;3.20;;
31692;SDS011;37436;53.230;6.614;2023-07-13T05:12:37;11.27;;;3.28;;
31692;SDS011;37436;53.230;6.614;2023-07-13T05:15:20;12.82;;;4.78;;
31692;SDS011;37436;53.230;6.614;2023-07-13T05:20:41;19.30;;;4.32;;
31692;SDS011;37436;53.230;6.614;2023-07-13T05:23:13;14.50;;;4.25;;
31692;SDS011;37436;53.230;6.614;2023-07-13T05:25:42;12.10;;;3.83;;
31692;SDS011;37436;53.230;6.614;2023-07-13T05:28:17;12.73;;;3.70;;
31692;SDS011;37436;53.230;6.614;2023-07-13T05:30:56;13.45;;;3.42;;
31692;SDS011;37436;53.230;6.614;2023-07-13T05:33:33;10.88;;;3.10;;
31692;SDS011;37436;53.230;6.614;2023-07-13T05:36:03;10.65;;;3.75;;
31692;SDS011;37436;53.230;6.614;2023-07-13T05:38:50;14.93;;;3.47;;
31692;SDS011;37436;53.230;6.614;2023-07-13T05:41:33;14.45;;;3.53;;
31692;SDS011;37436;53.230;6.614;2023-07-13T05:44:39;8.52;;;2.88;;
31692;SDS011;37436;53.230;6.614;2023-07-13T05:47:32;17.92;;;3.10;;
31692;SDS011;37436;53.230;6.614;2023-07-13T05:50:26;12.23;;;3.58;;
31692;SDS011;37436;53.230;6.614;2023-07-13T05:52:53;10.10;;;2.60;;
31692;SDS011;37436;53.230;6.614;2023-07-13T05:55:19;17.10;;;3.00;;
31692;SDS011;37436;53.230;6.614;2023-07-13T05:58:20;11.05;;;3.30;;
31692;SDS011;37436;53.230;6.614;2023-07-13T06:01:05;12.05;;;2.67;;
31692;SDS011;37436;53.230;6.614;2023-07-13T06:03:35;16.23;;;3.03;;
31692;SDS011;37436;53.230;6.614;2023-07-13T06:06:15;13.57;;;2.60;;
31692;SDS011;37436;53.230;6.614;2023-07-13T06:11:23;14.77;;;3.05;;
31692;SDS011;37436;53.230;6.614;2023-07-13T06:13:50;9.25;;;2.90;;
31692;SDS011;37436;53.230;6.614;2023-07-13T06:16:19;13.00;;;3.08;;
31692;SDS011;37436;53.230;6.614;2023-07-13T06:18:53;9.77;;;2.63;;
31692;SDS011;37436;53.230;6.614;2023-07-13T06:21:20;11.20;;;2.50;;
31692;SDS011;37436;53.230;6.614;2023-07-13T06:23:48;15.63;;;2.65;;
31692;SDS011;37436;53.230;6.614;2023-07-13T06:26:16;8.32;;;2.45;;
31692;SDS011;37436;53.230;6.614;2023-07-13T06:28:44;9.98;;;2.70;;
31692;SDS011;37436;53.230;6.614;2023-07-13T06:31:11;11.07;;;2.60;;
31692;SDS011;37436;53.230;6.614;2023-07-13T06:33:39;7.25;;;2.88;;
31692;SDS011;37436;53.230;6.614;2023-07-13T06:36:08;10.77;;;2.55;;
31692;SDS011;37436;53.230;6.614;2023-07-13T06:38:41;8.70;;;2.50;;
31692;SDS011;37436;53.230;6.614;2023-07-13T06:41:08;10.50;;;2.75;;
31692;SDS011;37436;53.230;6.614;2023-07-13T06:43:35;9.00;;;2.58;;
31692;SDS011;37436;53.230;6.614;2023-07-13T06:46:21;5.20;;;2.35;;
31692;SDS011;37436;53.230;6.614;2023-07-13T06:48:47;10.85;;;2.53;;
31692;SDS011;37436;53.230;6.614;2023-07-13T06:51:15;5.07;;;2.78;;
31692;SDS011;37436;53.230;6.614;2023-07-13T06:53:41;7.53;;;2.22;;
31692;SDS011;37436;53.230;6.614;2023-07-13T06:56:10;13.93;;;2.20;;
31692;SDS011;37436;53.230;6.614;2023-07-13T06:58:40;7.70;;;2.42;;
31692;SDS011;37436;53.230;6.614;2023-07-13T07:01:06;12.57;;;2.25;;
31692;SDS011;37436;53.230;6.614;2023-07-13T07:03:38;5.20;;;1.70;;
31692;SDS011;37436;53.230;6.614;2023-07-13T07:06:12;8.93;;;1.75;;
31692;SDS011;37436;53.230;6.614;2023-07-13T07:09:01;9.52;;;2.17;;
31692;SDS011;37436;53.230;6.614;2023-07-13T07:11:27;9.38;;;1.92;;
31692;SDS011;37436;53.230;6.614;2023-07-13T07:13:54;9.75;;;2.03;;
31692;SDS011;37436;53.230;6.614;2023-07-13T07:16:50;7.35;;;2.15;;
31692;SDS011;37436;53.230;6.614;2023-07-13T07:19:54;7.82;;;1.98;;
31692;SDS011;37436;53.230;6.614;2023-07-13T07:25:15;8.50;;;2.55;;
31692;SDS011;37436;53.230;6.614;2023-07-13T07:27:46;4.88;;;1.52;;
31692;SDS011;37436;53.230;6.614;2023-07-13T07:30:14;5.07;;;1.77;;
31692;SDS011;37436;53.230;6.614;2023-07-13T07:32:41;5.60;;;1.83;;
31692;SDS011;37436;53.230;6.614;2023-07-13T07:35:21;8.07;;;1.92;;
31692;SDS011;37436;53.230;6.614;2023-07-13T07:38:01;6.30;;;2.38;;
31692;SDS011;37436;53.230;6.614;2023-07-13T07:40:47;4.28;;;1.35;;
31692;SDS011;37436;53.230;6.614;2023-07-13T07:43:28;3.85;;;1.55;;
31692;SDS011;37436;53.230;6.614;2023-07-13T07:46:00;3.20;;;1.27;;
31692;SDS011;37436;53.230;6.614;2023-07-13T07:48:27;4.45;;;1.73;;
31692;SDS011;37436;53.230;6.614;2023-07-13T07:51:10;5.82;;;2.30;;
31692;SDS011;37436;53.230;6.614;2023-07-13T07:53:36;5.97;;;1.80;;
31692;SDS011;37436;53.230;6.614;2023-07-13T07:56:06;6.70;;;2.33;;
31692;SDS011;37436;53.230;6.614;2023-07-13T07:58:54;6.57;;;1.63;;
31692;SDS011;37436;53.230;6.614;2023-07-13T08:01:33;5.07;;;2.08;;
31692;SDS011;37436;53.230;6.614;2023-07-13T08:04:18;3.45;;;2.10;;
31692;SDS011;37436;53.230;6.614;2023-07-13T08:06:46;6.18;;;2.05;;
31692;SDS011;37436;53.230;6.614;2023-07-13T08:09:15;11.60;;;3.25;;
31692;SDS011;37436;53.230;6.614;2023-07-13T08:11:45;11.05;;;2.28;;
31692;SDS011;37436;53.230;6.614;2023-07-13T08:14:28;3.58;;;1.58;;
31692;SDS011;37436;53.230;6.614;2023-07-13T08:17:07;6.22;;;1.60;;
31692;SDS011;37436;53.230;6.614;2023-07-13T08:19:34;8.13;;;1.90;;
31692;SDS011;37436;53.230;6.614;2023-07-13T08:22:10;3.85;;;1.52;;
31692;SDS011;37436;53.230;6.614;2023-07-13T08:24:37;8.50;;;1.48;;
31692;SDS011;37436;53.230;6.614;2023-07-13T08:27:24;3.40;;;1.77;;
31692;SDS011;37436;53.230;6.614;2023-07-13T08:29:51;5.57;;;1.52;;
31692;SDS011;37436;53.230;6.614;2023-07-13T08:32:30;7.57;;;1.77;;
31692;SDS011;37436;53.230;6.614;2023-07-13T08:35:35;3.50;;;1.70;;
31692;SDS011;37436;53.230;6.614;2023-07-13T08:38:03;9.55;;;2.13;;
31692;SDS011;37436;53.230;6.614;2023-07-13T08:40:33;1.65;;;1.38;;
31692;SDS011;37436;53.230;6.614;2023-07-13T08:43:02;12.13;;;2.10;;
31692;SDS011;37436;53.230;6.614;2023-07-13T08:45:30;11.27;;;2.72;;
31692;SDS011;37436;53.230;6.614;2023-07-13T08:48:01;7.32;;;2.13;;
31692;SDS011;37436;53.230;6.614;2023-07-13T08:50:33;5.57;;;2.15;;
31692;SDS011;37436;53.230;6.614;2023-07-13T08:53:28;6.50;;;2.20;;
31692;SDS011;37436;53.230;6.614;2023-07-13T08:56:02;5.30;;;2.05;;
31692;SDS011;37436;53.230;6.614;2023-07-13T09:06:58;5.88;;;1.85;;
31692;SDS011;37436;53.230;6.614;2023-07-13T09:09:30;5.85;;;2.10;;
31692;SDS011;37436;53.230;6.614;2023-07-13T09:14:49;4.80;;;2.28;;
31692;SDS011;37436;53.230;6.614;2023-07-13T09:17:18;6.15;;;1.70;;
31692;SDS011;37436;53.230;6.614;2023-07-13T09:19:46;9.35;;;2.03;;
31692;SDS011;37436;53.230;6.614;2023-07-13T09:22:14;5.03;;;1.58;;
31692;SDS011;37436;53.230;6.614;2023-07-13T09:27:44;8.55;;;2.60;;
31692;SDS011;37436;53.230;6.614;2023-07-13T09:35:48;2.17;;;1.40;;
31692;SDS011;37436;53.230;6.614;2023-07-13T09:38:18;6.57;;;2.50;;
31692;SDS011;37436;53.230;6.614;2023-07-13T09:46:53;2.92;;;1.73;;
31692;SDS011;37436;53.230;6.614;2023-07-13T09:50:03;5.82;;;2.03;;
31692;SDS011;37436;53.230;6.614;2023-07-13T09:52:41;5.07;;;1.58;;
31692;SDS011;37436;53.230;6.614;2023-07-13T09:58:38;1.30;;;1.20;;
31692;SDS011;37436;53.230;6.614;2023-07-13T10:03:47;8.68;;;1.80;;
31692;SDS011;37436;53.230;6.614;2023-07-13T10:06:45;4.28;;;1.38;;
31692;SDS011;37436;53.230;6.614;2023-07-13T10:09:18;3.88;;;1.08;;
31692;SDS011;37436;53.230;6.614;2023-07-13T10:11:44;5.57;;;1.50;;
31692;SDS011;37436;53.230;6.614;2023-07-13T10:14:14;1.63;;;0.95;;
31692;SDS011;37436;53.230;6.614;2023-07-13T10:16:43;2.47;;;1.35;;
31692;SDS011;37436;53.230;6.614;2023-07-13T10:21:52;5.13;;;2.35;;
31692;SDS011;37436;53.230;6.614;2023-07-13T10:27:19;3.28;;;1.60;;
31692;SDS011;37436;53.230;6.614;2023-07-13T10:30:34;2.80;;;1.35;;
31692;SDS011;37436;53.230;6.614;2023-07-13T10:32:47;5.43;;;0.85;;
31692;SDS011;37436;53.230;6.614;2023-07-13T10:35:22;1.50;;;1.10;;
31692;SDS011;37436;53.230;6.614;2023-07-13T10:37:58;7.07;;;1.50;;
31692;SDS011;37436;53.230;6.614;2023-07-13T10:40:48;3.83;;;1.02;;
31692;SDS011;37436;53.230;6.614;2023-07-13T10:43:25;1.65;;;1.00;;
31692;SDS011;37436;53.230;6.614;2023-07-13T10:45:52;5.25;;;1.33;;
31692;SDS011;37436;53.230;6.614;2023-07-13T10:48:23;4.15;;;1.33;;
31692;SDS011;37436;53.230;6.614;2023-07-13T10:51:03;9.20;;;1.50;;
31692;SDS011;37436;53.230;6.614;2023-07-13T10:53:37;1.73;;;0.75;;
31692;SDS011;37436;53.230;6.614;2023-07-13T11:01:54;1.10;;;1.00;;
31692;SDS011;37436;53.230;6.614;2023-07-13T11:04:39;1.92;;;0.90;;
31692;SDS011;37436;53.230;6.614;2023-07-13T12:06:00;2.95;;;1.27;;
31692;SDS011;37436;53.230;6.614;2023-07-13T12:08:42;2.45;;;1.33;;
31692;SDS011;37436;53.230;6.614;2023-07-13T12:11:17;3.45;;;1.70;;
31692;SDS011;37436;53.230;6.614;2023-07-13T12:13:43;2.85;;;1.40;;
31692;SDS011;37436;53.230;6.614;2023-07-13T12:16:12;3.05;;;1.95;;
31692;SDS011;37436;53.230;6.614;2023-07-13T12:18:50;5.25;;;1.60;;
31692;SDS011;37436;53.230;6.614;2023-07-13T12:21:22;5.40;;;1.30;;
31692;SDS011;37436;53.230;6.614;2023-07-13T12:23:55;2.78;;;1.60;;
31692;SDS011;37436;53.230;6.614;2023-07-13T12:26:27;3.58;;;1.50;;
31692;SDS011;37436;53.230;6.614;2023-07-13T12:29:05;5.65;;;1.40;;
31692;SDS011;37436;53.230;6.614;2023-07-13T12:31:36;4.47;;;1.20;;
31692;SDS011;37436;53.230;6.614;2023-07-13T12:34:08;4.18;;;1.60;;
31692;SDS011;37436;53.230;6.614;2023-07-13T12:37:00;8.82;;;1.70;;
31692;SDS011;37436;53.230;6.614;2023-07-13T12:39:47;5.05;;;2.17;;
31692;SDS011;37436;53.230;6.614;2023-07-13T12:42:28;2.50;;;1.25;;
31692;SDS011;37436;53.230;6.614;2023-07-13T12:45:21;3.30;;;1.27;;
31692;SDS011;37436;53.230;6.614;2023-07-13T12:47:55;1.40;;;1.25;;
31692;SDS011;37436;53.230;6.614;2023-07-13T12:50:28;5.43;;;1.10;;
31692;SDS011;37436;53.230;6.614;2023-07-13T12:55:57;1.75;;;1.13;;
31692;SDS011;37436;53.230;6.614;2023-07-13T12:58:31;5.60;;;1.40;;
31692;SDS011;37436;53.230;6.614;2023-07-13T13:01:01;5.60;;;1.40;;
31692;SDS011;37436;53.230;6.614;2023-07-13T13:03:49;2.88;;;1.50;;
31692;SDS011;37436;53.230;6.614;2023-07-13T13:06:41;5.07;;;2.13;;
31692;SDS011;37436;53.230;6.614;2023-07-13T13:09:15;4.13;;;1.75;;
31692;SDS011;37436;53.230;6.614;2023-07-13T13:11:43;4.38;;;1.75;;
31692;SDS011;37436;53.230;6.614;2023-07-13T13:14:13;6.75;;;1.50;;
31692;SDS011;37436;53.230;6.614;2023-07-13T13:16:49;4.63;;;1.58;;
31692;SDS011;37436;53.230;6.614;2023-07-13T13:19:38;7.03;;;2.30;;
31692;SDS011;37436;53.230;6.614;2023-07-13T13:22:05;6.10;;;1.45;;
31692;SDS011;37436;53.230;6.614;2023-07-13T13:27:21;6.22;;;1.98;;
31692;SDS011;37436;53.230;6.614;2023-07-13T13:29:57;4.68;;;1.50;;
31692;SDS011;37436;53.230;6.614;2023-07-13T13:32:23;8.15;;;2.40;;
31692;SDS011;37436;53.230;6.614;2023-07-13T13:34:50;6.82;;;1.52;;
31692;SDS011;37436;53.230;6.614;2023-07-13T13:37:20;2.47;;;1.13;;
31692;SDS011;37436;53.230;6.614;2023-07-13T13:39:53;5.35;;;1.50;;
31692;SDS011;37436;53.230;6.614;2023-07-13T13:48:20;4.80;;;1.88;;
31692;SDS011;37436;53.230;6.614;2023-07-13T13:50:52;4.57;;;1.83;;
31692;SDS011;37436;53.230;6.614;2023-07-13T13:53:20;9.57;;;2.20;;
31692;SDS011;37436;53.230;6.614;2023-07-13T13:56:01;7.38;;;1.75;;
31692;SDS011;37436;53.230;6.614;2023-07-13T13:58:31;2.47;;;1.63;;
31692;SDS011;37436;53.230;6.614;2023-07-13T14:00:57;9.32;;;2.10;;
31692;SDS011;37436;53.230;6.614;2023-07-13T14:03:24;5.40;;;1.83;;
31692;SDS011;37436;53.230;6.614;2023-07-13T14:08:49;5.03;;;1.98;;
31692;SDS011;37436;53.230;6.614;2023-07-13T14:11:37;3.20;;;1.60;;
31692;SDS011;37436;53.230;6.614;2023-07-13T14:14:04;5.60;;;1.67;;
31692;SDS011;37436;53.230;6.614;2023-07-13T14:16:30;5.95;;;1.95;;
31692;SDS011;37436;53.230;6.614;2023-07-13T14:18:58;5.25;;;2.08;;
31692;SDS011;37436;53.230;6.614;2023-07-13T14:24:30;10.55;;;2.13;;
31692;SDS011;37436;53.230;6.614;2023-07-13T14:27:02;12.18;;;2.13;;
31692;SDS011;37436;53.230;6.614;2023-07-13T14:29:29;5.40;;;1.20;;
31692;SDS011;37436;53.230;6.614;2023-07-13T14:31:59;17.75;;;2.40;;
31692;SDS011;37436;53.230;6.614;2023-07-13T14:34:28;2.00;;;1.02;;
31692;SDS011;37436;53.230;6.614;2023-07-13T14:37:00;3.58;;;1.52;;
31692;SDS011;37436;53.230;6.614;2023-07-13T14:39:26;3.65;;;1.48;;
31692;SDS011;37436;53.230;6.614;2023-07-13T14:44:50;5.55;;;1.40;;
31692;SDS011;37436;53.230;6.614;2023-07-13T14:47:17;5.90;;;1.60;;
31692;SDS011;37436;53.230;6.614;2023-07-13T14:49:44;5.40;;;1.20;;
31692;SDS011;37436;53.230;6.614;2023-07-13T14:52:15;7.63;;;1.58;;
31692;SDS011;37436;53.230;6.614;2023-07-13T14:55:00;3.00;;;1.52;;
31692;SDS011;37436;53.230;6.614;2023-07-13T14:57:33;6.43;;;1.73;;
31692;SDS011;37436;53.230;6.614;2023-07-13T15:00:12;5.78;;;1.70;;
31692;SDS011;37436;53.230;6.614;2023-07-13T15:02:50;4.47;;;1.42;;
31692;SDS011;37436;53.230;6.614;2023-07-13T15:05:39;8.15;;;1.80;;
31692;SDS011;37436;53.230;6.614;2023-07-13T15:08:07;4.05;;;1.58;;
31692;SDS011;37436;53.230;6.614;2023-07-13T15:10:55;7.40;;;1.63;;
31692;SDS011;37436;53.230;6.614;2023-07-13T15:13:25;4.22;;;1.90;;
31692;SDS011;37436;53.230;6.614;2023-07-13T15:15:58;5.93;;;1.60;;
31692;SDS011;37436;53.230;6.614;2023-07-13T15:18:25;3.65;;;1.77;;
31692;SDS011;37436;53.230;6.614;2023-07-13T15:20:54;4.63;;;1.67;;
31692;SDS011;37436;53.230;6.614;2023-07-13T15:23:22;11.88;;;2.10;;
31692;SDS011;37436;53.230;6.614;2023-07-13T15:26:11;6.15;;;1.80;;
31692;SDS011;37436;53.230;6.614;2023-07-13T15:28:40;7.43;;;1.80;;
31692;SDS011;37436;53.230;6.614;2023-07-13T15:36:15;4.68;;;2.47;;
31692;SDS011;37436;53.230;6.614;2023-07-13T15:38:59;4.78;;;2.05;;
31692;SDS011;37436;53.230;6.614;2023-07-13T15:41:28;3.13;;;1.33;;
31692;SDS011;37436;53.230;6.614;2023-07-13T15:43:57;6.00;;;1.80;;
31692;SDS011;37436;53.230;6.614;2023-07-13T15:46:25;7.47;;;2.10;;
31692;SDS011;37436;53.230;6.614;2023-07-13T15:48:55;3.67;;;1.60;;
31692;SDS011;37436;53.230;6.614;2023-07-13T15:51:30;4.70;;;1.55;;
31692;SDS011;37436;53.230;6.614;2023-07-13T15:54:08;6.57;;;2.38;;
31692;SDS011;37436;53.230;6.614;2023-07-13T15:56:39;6.10;;;2.08;;
31692;SDS011;37436;53.230;6.614;2023-07-13T15:59:08;4.88;;;1.40;;
31692;SDS011;37436;53.230;6.614;2023-07-13T16:01:45;8.23;;;1.88;;
31692;SDS011;37436;53.230;6.614;2023-07-13T16:04:17;8.80;;;1.70;;
31692;SDS011;37436;53.230;6.614;2023-07-13T16:06:45;11.98;;;2.55;;
31692;SDS011;37436;53.230;6.614;2023-07-13T16:10:05;7.97;;;2.00;;
31692;SDS011;37436;53.230;6.614;2023-07-13T16:12:35;9.02;;;2.20;;
31692;SDS011;37436;53.230;6.614;2023-07-13T16:15:01;5.43;;;2.05;;
31692;SDS011;37436;53.230;6.614;2023-07-13T16:17:32;4.20;;;2.00;;
31692;SDS011;37436;53.230;6.614;2023-07-13T16:20:06;3.88;;;2.00;;
31692;SDS011;37436;53.230;6.614;2023-07-13T16:22:47;3.83;;;1.75;;
31692;SDS011;37436;53.230;6.614;2023-07-13T16:28:31;12.10;;;5.35;;
31692;SDS011;37436;53.230;6.614;2023-07-13T16:31:02;17.92;;;6.65;;
31692;SDS011;37436;53.230;6.614;2023-07-13T16:33:29;5.60;;;2.00;;
31692;SDS011;37436;53.230;6.614;2023-07-13T16:35:57;6.15;;;2.33;;
31692;SDS011;37436;53.230;6.614;2023-07-13T16:38:27;8.50;;;2.67;;
31692;SDS011;37436;53.230;6.614;2023-07-13T16:40:57;5.88;;;2.50;;
31692;SDS011;37436;53.230;6.614;2023-07-13T16:43:25;10.63;;;3.85;;
31692;SDS011;37436;53.230;6.614;2023-07-13T16:45:56;12.75;;;2.83;;
31692;SDS011;37436;53.230;6.614;2023-07-13T16:48:29;10.55;;;2.83;;
31692;SDS011;37436;53.230;6.614;2023-07-13T16:51:05;11.43;;;2.42;;
31692;SDS011;37436;53.230;6.614;2023-07-13T16:53:32;7.80;;;2.15;;
31692;SDS011;37436;53.230;6.614;2023-07-13T16:56:00;8.13;;;2.00;;
31692;SDS011;37436;53.230;6.614;2023-07-13T16:58:31;8.70;;;2.90;;
31692;SDS011;37436;53.230;6.614;2023-07-13T17:00:59;5.18;;;2.92;;
31692;SDS011;37436;53.230;6.614;2023-07-13T17:03:28;7.82;;;2.47;;
31692;SDS011;37436;53.230;6.614;2023-07-13T17:06:17;7.82;;;2.83;;
31692;SDS011;37436;53.230;6.614;2023-07-13T17:08:49;8.15;;;2.50;;
31692;SDS011;37436;53.230;6.614;2023-07-13T17:11:32;11.75;;;2.35;;
31692;SDS011;37436;53.230;6.614;2023-07-13T17:16:59;13.25;;;2.60;;
31692;SDS011;37436;53.230;6.614;2023-07-13T17:20:20;8.95;;;2.42;;
31692;SDS011;37436;53.230;6.614;2023-07-13T17:27:05;5.75;;;1.98;;
31692;SDS011;37436;53.230;6.614;2023-07-13T17:29:25;6.20;;;2.40;;
31692;SDS011;37436;53.230;6.614;2023-07-13T17:32:19;6.80;;;2.70;;
31692;SDS011;37436;53.230;6.614;2023-07-13T17:37:46;5.63;;;2.25;;
31692;SDS011;37436;53.230;6.614;2023-07-13T17:40:19;9.02;;;2.78;;
31692;SDS011;37436;53.230;6.614;2023-07-13T17:42:56;9.35;;;2.13;;
31692;SDS011;37436;53.230;6.614;2023-07-13T17:45:27;5.45;;;2.33;;
31692;SDS011;37436;53.230;6.614;2023-07-13T17:48:01;8.63;;;2.72;;
31692;SDS011;37436;53.230;6.614;2023-07-13T17:50:39;5.50;;;3.00;;
31692;SDS011;37436;53.230;6.614;2023-07-13T17:53:22;6.32;;;2.78;;